createdAt,value
2023-05-11T00:02:19.594Z,12.02
2023-05-11T00:07:23.726Z,13.10
2023-05-11T00:12:26.462Z,11.02
2023-05-11T00:17:29.292Z,11.25
2023-05-11T00:22:33.406Z,10.35
2023-05-11T00:27:36.128Z,10.15
2023-05-11T00:32:38.896Z,9.40
2023-05-11T00:37:43.007Z,9.68
2023-05-11T00:42:45.822Z,10.73
2023-05-11T00:47:48.631Z,11.05
2023-05-11T00:52:52.853Z,12.10
2023-05-11T00:57:55.657Z,13.20
2023-05-11T01:02:59.565Z,13.73
2023-05-11T01:08:09.779Z,13.45
2023-05-11T01:13:23.000Z,14.13
2023-05-11T01:18:31.792Z,14.93
2023-05-11T01:24:06.477Z,15.52
2023-05-11T01:29:42.105Z,16.13
2023-05-11T01:34:48.263Z,15.40
2023-05-11T01:39:55.302Z,14.35
2023-05-11T01:44:59.234Z,14.20
2023-05-11T01:50:05.887Z,15.45
2023-05-11T01:55:11.267Z,16.50
2023-05-11T02:00:17.204Z,14.85
2023-05-11T02:05:24.900Z,14.63
2023-05-11T02:10:28.956Z,14.43
2023-05-11T02:15:32.437Z,14.95
2023-05-11T02:20:37.724Z,14.95
2023-05-11T02:25:41.408Z,16.58
2023-05-11T02:30:51.010Z,17.65
2023-05-11T02:35:57.165Z,15.90
2023-05-11T02:41:07.229Z,16.38
2023-05-11T02:46:14.323Z,17.38
2023-05-11T02:51:23.285Z,18.73
2023-05-11T02:56:28.226Z,17.50
2023-05-11T03:01:32.870Z,18.20
2023-05-11T03:06:38.253Z,18.25
2023-05-11T03:11:45.753Z,16.30
2023-05-11T03:16:49.777Z,16.25
2023-05-11T03:21:55.384Z,16.67
2023-05-11T03:26:58.932Z,12.68
2023-05-11T03:32:04.175Z,12.82
2023-05-11T03:37:15.116Z,12.33
2023-05-11T03:42:21.174Z,13.30
2023-05-11T03:47:26.904Z,12.13
2023-05-11T03:52:32.752Z,11.18
2023-05-11T03:57:36.098Z,12.02
2023-05-11T04:02:39.063Z,10.90
2023-05-11T04:07:43.345Z,10.15
2023-05-11T04:12:46.208Z,9.20
2023-05-11T04:17:49.112Z,10.10
2023-05-11T04:22:53.348Z,9.95
2023-05-11T04:27:56.259Z,10.82
2023-05-11T04:32:59.201Z,11.75
2023-05-11T04:38:03.482Z,12.05
2023-05-11T04:43:06.604Z,11.70
2023-05-11T04:48:09.560Z,10.52
2023-05-11T04:53:13.804Z,14.07
2023-05-11T04:58:16.840Z,11.25
2023-05-11T05:03:19.848Z,10.45
2023-05-11T05:08:24.083Z,9.75
2023-05-11T05:13:26.940Z,10.13
2023-05-11T05:18:29.951Z,9.63
2023-05-11T05:23:34.405Z,9.13
2023-05-11T05:28:39.644Z,8.40
2023-05-11T05:33:42.565Z,8.57
2023-05-11T05:39:03.777Z,8.40
2023-05-11T05:44:08.676Z,9.93
2023-05-11T05:49:11.681Z,9.70
2023-05-11T05:54:16.112Z,9.75
2023-05-11T05:59:21.080Z,10.23
2023-05-11T06:04:24.177Z,9.52
2023-05-11T06:09:28.422Z,9.25
2023-05-11T06:14:31.626Z,9.30
2023-05-11T06:19:34.828Z,9.32
2023-05-11T06:24:39.187Z,8.63
2023-05-11T06:29:42.575Z,8.55
2023-05-11T06:34:45.486Z,8.98
2023-05-11T06:39:51.251Z,9.68
2023-05-11T06:44:54.350Z,9.82
2023-05-11T06:49:59.328Z,9.93
2023-05-11T06:55:04.501Z,10.02
2023-05-11T07:00:08.511Z,8.38
2023-05-11T07:05:12.222Z,7.03
2023-05-11T07:10:16.587Z,7.60
2023-05-11T07:15:19.549Z,7.65
2023-05-11T07:20:22.403Z,7.78
2023-05-11T07:25:26.826Z,7.43
2023-05-11T07:30:29.841Z,7.13
2023-05-11T07:35:32.654Z,7.90
2023-05-11T07:40:37.478Z,8.32
2023-05-11T07:45:40.537Z,6.80
2023-05-11T07:50:43.666Z,6.53
2023-05-11T07:55:48.079Z,6.45
2023-05-11T08:00:50.845Z,7.20
2023-05-11T08:05:53.707Z,6.78
2023-05-11T08:10:58.111Z,7.03
2023-05-11T08:16:00.933Z,7.35
2023-05-11T08:21:03.831Z,7.40
2023-05-11T08:26:08.107Z,6.85
2023-05-11T08:31:10.940Z,7.07
2023-05-11T08:36:13.941Z,6.38
2023-05-11T08:41:18.517Z,6.55
2023-05-11T08:46:27.138Z,7.22
2023-05-11T08:51:30.621Z,8.18
2023-05-11T08:56:37.074Z,8.82
2023-05-11T09:01:42.363Z,7.63
2023-05-11T09:06:45.370Z,8.25
2023-05-11T09:11:50.541Z,7.80
2023-05-11T09:16:53.374Z,8.15
2023-05-11T09:21:56.472Z,7.68
2023-05-11T09:27:10.587Z,6.68
2023-05-11T09:32:13.356Z,6.80
2023-05-11T09:37:20.144Z,6.22
2023-05-11T09:42:24.433Z,6.40
2023-05-11T09:47:27.622Z,7.10
2023-05-11T09:52:30.682Z,6.15
2023-05-11T09:57:34.790Z,7.57
2023-05-11T10:02:37.893Z,8.43
2023-05-11T10:07:40.934Z,7.88
2023-05-11T10:12:45.392Z,7.35
2023-05-11T10:17:49.380Z,8.68
2023-05-11T10:22:53.731Z,8.43
2023-05-11T10:27:58.692Z,8.05
2023-05-11T10:33:02.075Z,7.82
2023-05-11T10:38:05.876Z,8.60
2023-05-11T10:43:35.829Z,8.00
2023-05-11T10:49:04.095Z,9.18
2023-05-11T10:54:30.909Z,9.98
2023-05-11T11:00:14.258Z,10.27
2023-05-11T11:05:34.195Z,10.20
2023-05-11T11:10:39.271Z,8.38
2023-05-11T11:16:13.911Z,8.32
2023-05-11T11:21:43.247Z,9.43
2023-05-11T11:26:50.603Z,9.48
2023-05-11T11:31:54.899Z,10.88
2023-05-11T11:37:04.987Z,8.38
2023-05-11T11:42:09.341Z,8.75
2023-05-11T11:47:14.652Z,8.40
2023-05-11T11:52:34.504Z,8.20
2023-05-11T11:57:44.155Z,8.73
2023-05-11T12:02:48.414Z,8.32
2023-05-11T12:07:52.596Z,8.63
2023-05-11T12:12:59.226Z,8.32
2023-05-11T12:18:04.143Z,8.47
2023-05-11T12:23:07.063Z,7.85
2023-05-11T12:28:12.428Z,8.25
2023-05-11T12:33:20.281Z,8.50
2023-05-11T12:38:23.590Z,7.93
2023-05-11T12:43:26.666Z,7.32
2023-05-11T12:48:32.979Z,8.23
2023-05-11T12:53:38.056Z,7.50
2023-05-11T12:58:44.066Z,7.10
2023-05-11T13:03:49.264Z,6.60
2023-05-11T13:08:52.440Z,6.57
2023-05-11T13:13:57.048Z,7.10
2023-05-11T13:19:02.599Z,7.03
2023-05-11T13:24:06.211Z,7.40
2023-05-11T13:29:11.560Z,6.60
2023-05-11T13:34:16.474Z,6.80
2023-05-11T13:39:19.524Z,6.57
2023-05-11T13:44:22.272Z,7.70
2023-05-11T13:49:27.472Z,7.07
2023-05-11T13:54:31.764Z,7.65
2023-05-11T13:59:34.920Z,7.68
2023-05-11T14:04:39.977Z,7.10
2023-05-11T14:09:43.720Z,7.45
2023-05-11T14:14:46.563Z,7.13
2023-05-11T14:19:50.681Z,8.05
2023-05-11T14:24:53.390Z,7.00
2023-05-11T14:29:56.186Z,7.30
2023-05-11T14:35:00.532Z,8.48
2023-05-11T14:40:03.522Z,7.85
2023-05-11T14:45:07.723Z,7.40
2023-05-11T14:50:12.337Z,7.68
2023-05-11T14:55:15.102Z,8.38
2023-05-11T15:00:18.807Z,8.65
2023-05-11T15:05:22.942Z,9.32
2023-05-11T15:10:25.855Z,7.90
2023-05-11T15:15:28.834Z,8.02
2023-05-11T15:20:34.595Z,9.63
2023-05-11T15:25:37.828Z,8.13
2023-05-11T15:30:41.605Z,9.00
2023-05-11T15:35:45.809Z,9.18
2023-05-11T15:40:48.764Z,9.45
2023-05-11T15:45:51.834Z,10.18
2023-05-11T15:50:56.116Z,10.52
2023-05-11T15:55:59.035Z,9.52
2023-05-11T16:01:02.076Z,9.70
2023-05-11T16:06:07.243Z,8.85
2023-05-11T16:11:10.088Z,8.77
2023-05-11T16:16:13.293Z,9.13
2023-05-11T16:21:17.564Z,9.15
2023-05-11T16:26:20.447Z,9.02
2023-05-11T16:31:23.793Z,8.90
2023-05-11T16:36:29.428Z,9.85
2023-05-11T16:41:32.457Z,11.73
2023-05-11T16:46:35.366Z,11.65
2023-05-11T16:51:41.608Z,11.82
2023-05-11T16:56:44.550Z,11.70
2023-05-11T17:01:47.535Z,12.77
2023-05-11T17:06:52.157Z,13.45
2023-05-11T17:11:57.381Z,13.45
2023-05-11T17:17:00.257Z,12.40
2023-05-11T17:22:04.681Z,14.75
2023-05-11T17:27:07.567Z,14.75
2023-05-11T17:32:10.524Z,15.48
2023-05-11T17:37:30.606Z,16.45
2023-05-11T17:42:35.733Z,15.88
2023-05-11T17:47:38.729Z,16.73
2023-05-11T17:52:45.310Z,17.20
2023-05-11T17:57:48.456Z,16.77
2023-05-11T18:02:51.533Z,17.52
2023-05-11T18:07:56.274Z,16.92
2023-05-11T18:13:01.678Z,18.13
2023-05-11T18:18:04.629Z,17.60
2023-05-11T18:23:08.831Z,18.27
2023-05-11T18:28:11.693Z,17.88
2023-05-11T18:33:14.561Z,19.88
2023-05-11T18:38:19.237Z,20.35
2023-05-11T18:43:22.117Z,19.73
2023-05-11T18:48:24.964Z,19.08
2023-05-11T18:53:29.434Z,19.35
2023-05-11T18:58:32.306Z,17.88
2023-05-11T19:03:36.146Z,18.00
2023-05-11T19:08:40.382Z,17.30
2023-05-11T19:13:43.874Z,16.85
2023-05-11T19:18:46.662Z,16.67
2023-05-11T19:23:50.994Z,16.73
2023-05-11T19:28:53.833Z,15.45
2023-05-11T19:33:56.628Z,16.17
2023-05-11T19:39:00.807Z,14.95
2023-05-11T19:44:03.761Z,14.63
2023-05-11T19:49:06.640Z,14.77
2023-05-11T19:54:11.395Z,14.57
2023-05-11T19:59:20.569Z,14.20
2023-05-11T20:04:31.223Z,14.80
2023-05-11T20:09:38.070Z,14.45
2023-05-11T20:14:42.292Z,14.55
2023-05-11T20:19:45.163Z,14.70
2023-05-11T20:24:49.430Z,13.18
2023-05-11T20:29:54.729Z,13.75
2023-05-11T20:34:57.595Z,11.93
2023-05-11T20:40:02.146Z,11.52
2023-05-11T20:45:07.361Z,11.20
2023-05-11T20:50:10.921Z,10.52
2023-05-11T20:55:16.025Z,9.57
2023-05-11T21:00:19.039Z,9.48
2023-05-11T21:05:23.558Z,10.57
2023-05-11T21:10:29.671Z,11.73
2023-05-11T21:15:32.543Z,7.97
2023-05-11T21:20:35.285Z,8.30
2023-05-11T21:25:39.414Z,10.68
2023-05-11T21:30:42.347Z,10.40
2023-05-11T21:35:45.244Z,11.60
2023-05-11T21:40:53.108Z,11.27
2023-05-11T21:45:56.045Z,11.68
2023-05-11T21:50:58.832Z,12.32
2023-05-11T21:56:02.970Z,12.32
2023-05-11T22:01:05.895Z,12.25
2023-05-11T22:06:08.970Z,12.82
2023-05-11T22:11:13.108Z,13.68
2023-05-11T22:16:16.227Z,13.85
2023-05-11T22:21:19.010Z,14.07
2023-05-11T22:26:23.133Z,14.43
2023-05-11T22:31:26.779Z,14.27
2023-05-11T22:36:29.688Z,14.60
2023-05-11T22:41:33.921Z,14.88
2023-05-11T22:46:36.685Z,14.60
2023-05-11T22:51:39.470Z,15.88
2023-05-11T22:56:44.102Z,15.50
2023-05-11T23:01:47.389Z,13.13
2023-05-11T23:06:50.363Z,11.45
2023-05-11T23:11:54.639Z,11.02
2023-05-11T23:16:57.475Z,9.90
2023-05-11T23:22:00.236Z,10.15
2023-05-11T23:27:04.752Z,9.15
2023-05-11T23:32:08.674Z,9.20
2023-05-11T23:37:11.563Z,9.48
2023-05-11T23:42:15.727Z,8.07
2023-05-11T23:47:18.539Z,8.93
2023-05-11T23:52:21.841Z,7.75
2023-05-11T23:57:26.122Z,7.63
